Cedar Point, North Carolina
Current Conditions -  °F | °C
As of 4:57 AM on Monday 26 Jan 2015 (Local Time) from KNJM Reporting Station
Clear Clear  
Wind Chill:   Ceiling: Unl
Heat Index:   Visibility: 10mi
Dew Point:   Wind: 0mph
Humidity: 92%   Direction: NA
Pressure: 29.73"   Gusts: NA
Location:  34.7017°N, 77.1399°W
Report Text: KNJM 260957Z AUTO 00000KT 10SM CLR 06/04 A2973 RMK AO2 SLP071 T00560044 $
Loading
Personal Weather Stations






























Interactive Weather Map New forecast layout! Learn more

10-Day Weather Forecast

Advertisements
Track Severe Weather on mobile